createdAt,value
2019-01-04T00:01:45.542Z,10.63
2019-01-04T00:04:18.542Z,14.53
2019-01-04T00:06:48.730Z,42.27
2019-01-04T00:09:19.321Z,30.13
2019-01-04T00:11:49.634Z,16.53
2019-01-04T00:14:19.747Z,13.00
2019-01-04T00:16:49.871Z,14.17
2019-01-04T00:19:20.011Z,13.97
2019-01-04T00:21:50.207Z,10.03
2019-01-04T00:24:20.303Z,11.93
2019-01-04T00:26:50.422Z,15.33
2019-01-04T00:29:20.523Z,12.67
2019-01-04T00:31:50.653Z,13.27
2019-01-04T00:34:20.754Z,12.90
2019-01-04T00:36:51.122Z,14.47
2019-01-04T00:39:21.224Z,11.83
2019-01-04T00:41:51.351Z,10.37
2019-01-04T00:44:21.463Z,11.47
2019-01-04T00:46:51.571Z,14.07
2019-01-04T00:49:21.693Z,10.27
2019-01-04T00:51:51.846Z,12.67
2019-01-04T00:54:22.057Z,9.50
2019-01-04T00:57:09.022Z,11.00
2019-01-04T01:00:16.339Z,14.83
2019-01-04T01:03:52.198Z,12.87
2019-01-04T01:06:58.482Z,13.07
2019-01-04T01:09:58.447Z,16.23
2019-01-04T01:12:53.991Z,12.70
2019-01-04T01:15:59.445Z,15.60
2019-01-04T01:18:57.036Z,16.20
2019-01-04T01:22:06.170Z,14.33
2019-01-04T01:25:15.120Z,15.23
2019-01-04T01:28:29.155Z,17.17
2019-01-04T01:31:32.487Z,15.43
2019-01-04T01:34:32.954Z,18.77
2019-01-04T01:37:14.955Z,24.70
2019-01-04T01:40:11.284Z,19.53
2019-01-04T01:43:17.602Z,21.67
2019-01-04T01:46:24.269Z,21.20
2019-01-04T01:49:37.390Z,21.13
2019-01-04T01:52:15.426Z,24.27
2019-01-04T01:54:45.558Z,22.10
2019-01-04T01:57:15.655Z,22.20
2019-01-04T01:59:45.786Z,21.83
2019-01-04T02:02:15.906Z,23.90
2019-01-04T02:04:46.294Z,21.97
2019-01-04T02:07:16.966Z,25.87
2019-01-04T02:09:48.139Z,25.33
2019-01-04T02:12:18.281Z,20.87
2019-01-04T02:14:48.366Z,21.87
2019-01-04T02:17:18.486Z,24.00
2019-01-04T02:19:48.593Z,22.77
2019-01-04T02:22:18.702Z,32.23
2019-01-04T02:24:48.814Z,26.07
2019-01-04T02:27:18.902Z,26.53
2019-01-04T02:29:49.043Z,21.27
2019-01-04T02:32:19.145Z,23.50
2019-01-04T02:34:49.266Z,26.03
2019-01-04T02:37:19.401Z,26.43
2019-01-04T02:39:49.501Z,25.37
2019-01-04T02:42:19.622Z,28.43
2019-01-04T02:44:49.732Z,23.17
2019-01-04T02:47:19.898Z,27.33
2019-01-04T02:49:49.999Z,30.83
2019-01-04T02:52:20.111Z,26.23
2019-01-04T02:54:50.234Z,29.80
2019-01-04T02:57:20.327Z,27.77
2019-01-04T02:59:50.457Z,25.33
2019-01-04T03:02:39.730Z,28.47
2019-01-04T03:05:10.118Z,35.20
2019-01-04T03:07:41.288Z,33.60
2019-01-04T03:10:11.430Z,34.13
2019-01-04T03:12:41.546Z,32.43
2019-01-04T03:15:11.675Z,37.33
2019-01-04T03:17:41.794Z,34.50
2019-01-04T03:20:11.910Z,45.20
2019-01-04T03:22:42.026Z,38.50
2019-01-04T03:25:12.135Z,34.97
2019-01-04T03:27:42.342Z,37.27
2019-01-04T03:30:12.439Z,44.73
2019-01-04T03:32:42.812Z,44.30
2019-01-04T03:35:13.240Z,37.70
2019-01-04T03:37:43.328Z,39.37
2019-01-04T03:40:13.447Z,44.00
2019-01-04T03:42:43.580Z,42.03
2019-01-04T03:45:13.679Z,46.43
2019-01-04T03:47:43.799Z,45.90
2019-01-04T03:50:13.897Z,46.67
2019-01-04T03:52:44.103Z,49.60
2019-01-04T03:55:14.191Z,46.13
2019-01-04T03:57:44.310Z,50.97
2019-01-04T04:00:15.495Z,52.83
2019-01-04T04:02:45.591Z,51.83
2019-01-04T04:05:15.801Z,48.13
2019-01-04T04:07:45.898Z,50.30
2019-01-04T04:10:16.041Z,54.57
2019-01-04T04:12:46.145Z,57.07
2019-01-04T04:15:16.335Z,52.97
2019-01-04T04:17:46.448Z,49.60
2019-01-04T04:20:17.615Z,51.40
2019-01-04T04:22:47.734Z,54.53
2019-01-04T04:25:17.830Z,53.67
2019-01-04T04:27:47.978Z,49.70
2019-01-04T04:30:18.079Z,56.47
2019-01-04T04:32:48.197Z,54.00
2019-01-04T04:35:18.311Z,53.87
2019-01-04T04:37:48.403Z,50.67
2019-01-04T04:40:18.527Z,50.13
2019-01-04T04:42:48.623Z,54.53
2019-01-04T04:45:18.798Z,58.70
2019-01-04T04:47:48.910Z,50.07
2019-01-04T04:50:19.093Z,50.63
2019-01-04T04:52:49.183Z,52.03
2019-01-04T04:55:19.307Z,53.30
2019-01-04T04:57:49.424Z,47.73
2019-01-04T05:00:19.514Z,55.57
2019-01-04T05:02:49.630Z,49.63
2019-01-04T05:05:19.814Z,64.30
2019-01-04T05:07:50.131Z,49.67
2019-01-04T05:10:20.246Z,45.90
2019-01-04T05:12:50.363Z,46.23
2019-01-04T05:15:20.483Z,45.77
2019-01-04T05:17:50.602Z,46.70
2019-01-04T05:20:20.722Z,47.23
2019-01-04T05:22:50.819Z,42.03
2019-01-04T05:25:20.938Z,45.00
2019-01-04T05:27:51.030Z,42.97
2019-01-04T05:30:21.411Z,47.67
2019-01-04T05:32:51.506Z,46.07
2019-01-04T05:35:21.621Z,46.07
2019-01-04T05:37:51.737Z,42.07
2019-01-04T05:40:21.838Z,44.40
2019-01-04T05:42:51.963Z,40.73
2019-01-04T05:45:22.057Z,41.43
2019-01-04T05:47:52.291Z,42.00
2019-01-04T05:50:22.390Z,48.17
2019-01-04T05:52:52.518Z,46.07
2019-01-04T05:55:22.638Z,42.57
2019-01-04T05:57:52.738Z,44.97
2019-01-04T06:00:22.866Z,42.23
2019-01-04T06:02:52.954Z,40.67
2019-01-04T06:05:23.250Z,46.90
2019-01-04T06:07:53.342Z,41.37
2019-01-04T06:10:23.437Z,38.90
2019-01-04T06:12:53.563Z,40.70
2019-01-04T06:15:23.659Z,39.93
2019-01-04T06:17:53.838Z,41.87
2019-01-04T06:20:23.926Z,38.67
2019-01-04T06:22:54.043Z,43.80
2019-01-04T06:25:24.162Z,39.70
2019-01-04T06:27:54.258Z,42.20
2019-01-04T06:30:24.380Z,43.10
2019-01-04T06:32:54.469Z,37.20
2019-01-04T06:35:24.615Z,43.53
2019-01-04T06:37:54.710Z,47.00
2019-01-04T06:40:24.850Z,45.43
2019-01-04T06:42:54.947Z,47.37
2019-01-04T06:45:25.062Z,46.33
2019-01-04T06:47:55.175Z,47.00
2019-01-04T06:50:25.268Z,44.73
2019-01-04T06:52:55.386Z,43.87
2019-01-04T06:56:08.715Z,48.07
2019-01-04T06:58:38.830Z,47.33
2019-01-04T07:01:08.928Z,51.70
2019-01-04T07:03:39.082Z,60.37
2019-01-04T07:06:09.215Z,57.73
2019-01-04T07:08:39.347Z,62.70
2019-01-04T07:11:09.469Z,72.50
2019-01-04T07:13:39.606Z,64.40
2019-01-04T07:16:09.722Z,56.67
2019-01-04T07:18:39.820Z,69.20
2019-01-04T07:21:09.949Z,65.97
2019-01-04T07:23:40.030Z,64.83
2019-01-04T07:26:10.410Z,65.23
2019-01-04T07:28:40.506Z,59.03
2019-01-04T07:31:10.626Z,64.73
2019-01-04T07:33:41.090Z,65.73
2019-01-04T07:36:11.182Z,58.47
2019-01-04T07:38:41.306Z,65.23
2019-01-04T07:41:11.403Z,69.00
2019-01-04T07:43:41.870Z,65.87
2019-01-04T07:46:11.954Z,64.57
2019-01-04T07:48:42.123Z,60.07
2019-01-04T07:51:12.559Z,63.30
2019-01-04T07:53:42.683Z,63.77
2019-01-04T07:56:12.806Z,83.90
2019-01-04T07:58:42.963Z,68.60
2019-01-04T08:01:13.089Z,66.57
2019-01-04T08:03:44.242Z,70.07
2019-01-04T08:06:14.642Z,73.03
2019-01-04T08:08:44.744Z,65.20
2019-01-04T08:11:15.111Z,62.93
2019-01-04T08:13:45.278Z,62.30
2019-01-04T08:16:16.422Z,59.17
2019-01-04T08:18:46.505Z,62.13
2019-01-04T08:21:16.635Z,64.33
2019-01-04T08:23:47.687Z,63.70
2019-01-04T08:26:17.890Z,65.13
2019-01-04T08:28:47.999Z,63.43
2019-01-04T08:31:18.114Z,56.63
2019-01-04T08:33:48.234Z,56.70
2019-01-04T08:36:18.354Z,51.67
2019-01-04T08:38:48.479Z,60.90
2019-01-04T08:41:18.570Z,51.37
2019-01-04T08:43:48.718Z,51.47
2019-01-04T08:46:18.817Z,50.37
2019-01-04T08:48:48.947Z,59.33
2019-01-04T08:51:20.207Z,51.30
2019-01-04T08:54:01.490Z,52.07
2019-01-04T08:56:35.091Z,49.63
2019-01-04T08:59:05.249Z,47.77
2019-01-04T09:01:36.378Z,49.60
2019-01-04T09:04:07.810Z,52.17
2019-01-04T09:06:38.550Z,50.03
2019-01-04T09:09:09.745Z,45.80
2019-01-04T09:11:39.847Z,50.53
2019-01-04T09:14:10.002Z,51.53
2019-01-04T09:16:40.106Z,50.97
2019-01-04T09:19:10.218Z,57.13
2019-01-04T09:21:40.623Z,47.77
2019-01-04T09:24:10.718Z,47.87
2019-01-04T09:26:40.843Z,45.07
2019-01-04T09:29:10.946Z,40.93
2019-01-04T09:31:41.203Z,49.93
2019-01-04T09:34:11.310Z,42.83
2019-01-04T09:36:41.720Z,41.77
2019-01-04T09:39:12.062Z,48.03
2019-01-04T09:41:55.460Z,46.70
2019-01-04T09:44:26.451Z,40.50
2019-01-04T09:46:56.602Z,39.70
2019-01-04T09:49:26.695Z,39.53
2019-01-04T09:51:58.450Z,43.63
2019-01-04T09:54:28.558Z,38.00
2019-01-04T09:56:58.679Z,36.47
2019-01-04T09:59:28.800Z,36.80
2019-01-04T10:01:59.351Z,39.40
2019-01-04T10:04:29.462Z,35.53
2019-01-04T10:06:59.646Z,36.53
2019-01-04T10:09:30.053Z,35.93
2019-01-04T10:12:00.297Z,45.90
2019-01-04T10:14:30.410Z,41.20
2019-01-04T10:17:00.918Z,36.40
2019-01-04T10:19:31.010Z,38.23
2019-01-04T10:22:01.130Z,37.77
2019-01-04T10:24:33.502Z,33.80
2019-01-04T10:27:03.635Z,33.23
2019-01-04T10:29:33.731Z,31.30
2019-01-04T10:32:04.189Z,35.43
2019-01-04T10:34:34.631Z,30.87
2019-01-04T10:37:04.765Z,38.00
2019-01-04T10:39:34.884Z,36.80
2019-01-04T10:42:04.976Z,37.37
2019-01-04T10:44:35.102Z,35.40
2019-01-04T10:47:05.199Z,32.93
2019-01-04T10:49:35.425Z,34.17
2019-01-04T10:52:06.594Z,29.87
2019-01-04T10:54:36.767Z,27.80
2019-01-04T10:57:06.859Z,29.73
2019-01-04T10:59:37.246Z,33.03
2019-01-04T11:02:07.342Z,31.40
2019-01-04T11:04:37.474Z,30.40
2019-01-04T11:07:07.659Z,29.93
2019-01-04T11:09:37.774Z,28.73
2019-01-04T11:12:07.890Z,29.60
2019-01-04T11:14:37.915Z,26.00
2019-01-04T11:17:08.126Z,28.67
2019-01-04T11:19:38.221Z,32.23
2019-01-04T11:22:44.418Z,27.10
2019-01-04T11:26:03.614Z,26.93
2019-01-04T11:29:27.123Z,29.67
2019-01-04T11:32:25.654Z,28.50
2019-01-04T11:35:22.862Z,28.17
2019-01-04T11:38:16.074Z,26.87
2019-01-04T11:41:30.051Z,25.80
2019-01-04T11:44:17.987Z,24.63
2019-01-04T11:47:20.153Z,25.10
2019-01-04T11:50:21.387Z,24.80
2019-01-04T11:52:56.054Z,25.30
2019-01-04T11:55:26.158Z,24.73
2019-01-04T11:57:56.278Z,22.60
2019-01-04T12:00:26.467Z,20.20
2019-01-04T12:02:56.972Z,22.13
2019-01-04T12:05:27.086Z,18.37
2019-01-04T12:07:57.359Z,22.10
2019-01-04T12:10:27.478Z,20.90
2019-01-04T12:12:57.607Z,21.90
2019-01-04T12:15:28.098Z,20.00
2019-01-04T12:17:59.487Z,15.80
2019-01-04T12:20:31.014Z,21.40
2019-01-04T12:23:01.956Z,19.57
2019-01-04T12:25:32.344Z,20.10
2019-01-04T12:28:02.503Z,17.73
2019-01-04T12:30:33.711Z,19.93
2019-01-04T12:33:03.815Z,23.63
2019-01-04T12:35:33.957Z,20.60
2019-01-04T12:38:04.047Z,20.83
2019-01-04T12:40:34.538Z,18.43
2019-01-04T12:43:04.694Z,20.60
2019-01-04T12:45:34.832Z,17.80
2019-01-04T12:48:04.951Z,20.70
2019-01-04T12:50:35.047Z,17.07
2019-01-04T12:53:05.857Z,18.90
2019-01-04T12:55:35.952Z,20.13
2019-01-04T12:58:06.120Z,18.77
2019-01-04T13:00:36.219Z,17.57
2019-01-04T13:03:06.339Z,16.87
2019-01-04T13:05:36.475Z,20.27
2019-01-04T13:08:06.252Z,17.87
2019-01-04T13:10:36.395Z,15.77
2019-01-04T13:13:06.495Z,16.17
2019-01-04T13:15:36.606Z,16.07
2019-01-04T13:18:06.705Z,16.90
2019-01-04T13:20:36.922Z,16.67
2019-01-04T13:23:07.019Z,13.70
2019-01-04T13:25:37.511Z,16.37
2019-01-04T13:28:07.630Z,20.43
2019-01-04T13:30:37.730Z,16.03
2019-01-04T13:33:07.835Z,15.53
2019-01-04T13:35:37.958Z,15.03
2019-01-04T13:38:08.731Z,15.43
2019-01-04T13:40:38.806Z,13.57
2019-01-04T13:43:08.938Z,16.03
2019-01-04T13:45:39.039Z,16.77
2019-01-04T13:48:09.478Z,14.10
2019-01-04T13:50:39.618Z,12.60
2019-01-04T13:53:09.731Z,16.17
2019-01-04T13:55:39.846Z,12.90
2019-01-04T13:58:09.974Z,14.03
2019-01-04T14:00:40.170Z,17.17
2019-01-04T14:03:10.263Z,16.10
2019-01-04T14:05:40.375Z,16.57
2019-01-04T14:08:10.546Z,15.40
2019-01-04T14:10:40.646Z,17.90
2019-01-04T14:13:10.766Z,20.10
2019-01-04T14:15:41.930Z,14.17
2019-01-04T14:18:12.148Z,13.33
2019-01-04T14:20:42.230Z,14.67
2019-01-04T14:23:12.376Z,16.40
2019-01-04T14:25:42.490Z,14.47
2019-01-04T14:28:12.585Z,14.03
2019-01-04T14:30:42.706Z,13.07
2019-01-04T14:33:12.799Z,14.70
2019-01-04T14:35:42.930Z,14.27
2019-01-04T14:38:13.041Z,15.13
2019-01-04T14:40:43.141Z,14.13
2019-01-04T14:43:13.252Z,14.50
2019-01-04T14:45:43.420Z,13.57
2019-01-04T14:48:13.843Z,15.57
2019-01-04T14:50:43.942Z,15.10
2019-01-04T14:53:14.150Z,16.53
2019-01-04T14:55:44.238Z,13.83
2019-01-04T14:58:14.355Z,17.30
2019-01-04T15:00:44.473Z,14.90
2019-01-04T15:03:14.576Z,17.63
2019-01-04T15:05:50.320Z,15.10
2019-01-04T15:08:16.466Z,17.23
2019-01-04T15:10:46.610Z,16.73
2019-01-04T15:13:16.706Z,14.63
2019-01-04T15:15:46.919Z,14.40
2019-01-04T15:18:17.006Z,17.27
2019-01-04T15:20:47.115Z,16.27
2019-01-04T15:23:17.250Z,19.67
2019-01-04T15:25:47.375Z,17.97
2019-01-04T15:28:17.486Z,17.00
2019-01-04T15:30:47.585Z,18.13
2019-01-04T15:33:17.694Z,18.20
2019-01-04T15:35:48.703Z,18.30
2019-01-04T15:38:18.858Z,18.20
2019-01-04T15:40:48.956Z,20.13
2019-01-04T15:43:21.386Z,23.20
2019-01-04T15:45:51.490Z,22.13
2019-01-04T15:48:22.004Z,21.20
2019-01-04T15:50:52.498Z,24.53
2019-01-04T15:53:23.149Z,22.70
2019-01-04T15:55:53.183Z,20.80
2019-01-04T15:58:23.311Z,24.40
2019-01-04T16:00:53.465Z,23.90
2019-01-04T16:03:23.564Z,20.67
2019-01-04T16:05:53.674Z,25.20
2019-01-04T16:08:23.842Z,22.10
2019-01-04T16:10:54.053Z,19.50
2019-01-04T16:13:24.151Z,28.57
2019-01-04T16:15:54.294Z,32.17
2019-01-04T16:18:24.421Z,26.03
2019-01-04T16:20:54.527Z,32.90
2019-01-04T16:23:24.950Z,24.33
2019-01-04T16:25:55.038Z,26.00
2019-01-04T16:28:25.287Z,25.33
2019-01-04T16:30:55.696Z,24.07
2019-01-04T16:33:25.809Z,26.73
2019-01-04T16:35:55.927Z,26.27
2019-01-04T16:38:26.052Z,31.17
2019-01-04T16:40:56.532Z,26.63
2019-01-04T16:43:26.640Z,31.17
2019-01-04T16:45:57.075Z,33.63
2019-01-04T16:48:27.175Z,24.90
2019-01-04T16:50:57.309Z,30.27
2019-01-04T16:53:27.413Z,28.97
2019-01-04T16:55:57.546Z,33.23
2019-01-04T16:58:27.676Z,24.00
2019-01-04T17:00:58.076Z,34.53
2019-01-04T17:03:28.197Z,31.77
2019-01-04T17:05:58.314Z,26.87
2019-01-04T17:08:28.712Z,31.67
2019-01-04T17:10:58.790Z,33.23
2019-01-04T17:13:28.995Z,28.63
2019-01-04T17:15:59.088Z,26.70
2019-01-04T17:18:29.202Z,28.17
2019-01-04T17:20:59.334Z,33.57
2019-01-04T17:23:30.574Z,26.67
2019-01-04T17:26:01.159Z,33.67
2019-01-04T17:28:31.827Z,29.20
2019-01-04T17:31:01.930Z,30.63
2019-01-04T17:33:33.179Z,24.93
2019-01-04T17:36:03.287Z,27.90
2019-01-04T17:38:33.434Z,32.50
2019-01-04T17:41:03.547Z,37.60
2019-01-04T17:43:33.642Z,34.90
2019-01-04T17:46:03.762Z,31.77
2019-01-04T17:48:33.879Z,34.67
2019-01-04T17:51:03.994Z,31.80
2019-01-04T17:53:34.787Z,36.93
2019-01-04T17:56:05.024Z,33.90
2019-01-04T17:58:35.474Z,33.23
2019-01-04T18:01:06.003Z,28.03
2019-01-04T18:03:36.430Z,30.73
2019-01-04T18:06:06.961Z,34.10
2019-01-04T18:08:37.190Z,34.10
2019-01-04T18:11:07.319Z,25.17
2019-01-04T18:13:38.425Z,31.03
2019-01-04T18:16:08.945Z,28.63
2019-01-04T18:18:39.085Z,25.23
2019-01-04T18:21:09.551Z,30.20
2019-01-04T18:23:39.714Z,29.80
2019-01-04T18:26:09.827Z,27.67
2019-01-04T18:28:40.234Z,29.23
2019-01-04T18:31:10.643Z,32.53
2019-01-04T18:33:40.766Z,26.77
2019-01-04T18:36:10.874Z,34.33
2019-01-04T18:38:40.963Z,28.23
2019-01-04T18:41:11.170Z,32.23
2019-01-04T18:43:41.271Z,24.50
2019-01-04T18:46:11.660Z,28.87
2019-01-04T18:48:42.106Z,32.03
2019-01-04T18:51:12.255Z,32.87
2019-01-04T18:53:42.350Z,31.97
2019-01-04T18:56:12.467Z,32.33
2019-01-04T18:58:42.579Z,28.00
2019-01-04T19:01:13.773Z,28.67
2019-01-04T19:03:44.095Z,27.43
2019-01-04T19:06:14.199Z,25.83
2019-01-04T19:08:44.416Z,30.00
2019-01-04T19:11:15.278Z,30.87
2019-01-04T19:13:45.415Z,29.37
2019-01-04T19:16:15.436Z,28.67
2019-01-04T19:18:46.726Z,37.83
2019-01-04T19:21:17.150Z,27.30
2019-01-04T19:23:47.270Z,32.37
2019-01-04T19:26:17.355Z,27.83
2019-01-04T19:28:47.481Z,29.47
2019-01-04T19:31:17.599Z,28.23
2019-01-04T19:33:47.722Z,31.37
2019-01-04T19:36:17.843Z,31.47
2019-01-04T19:38:47.941Z,33.53
2019-01-04T19:41:18.126Z,29.70
2019-01-04T19:43:48.214Z,27.90
2019-01-04T19:46:18.416Z,30.83
2019-01-04T19:48:48.510Z,30.73
2019-01-04T19:51:18.630Z,32.10
2019-01-04T19:53:48.738Z,37.57
2019-01-04T19:56:18.830Z,33.50
2019-01-04T19:58:48.982Z,32.87
2019-01-04T20:01:19.072Z,37.07
2019-01-04T20:03:49.288Z,30.97
2019-01-04T20:07:12.918Z,34.60
2019-01-04T20:10:51.063Z,33.63
2019-01-04T20:14:17.014Z,30.67
2019-01-04T20:20:13.936Z,26.93
2019-01-04T20:23:21.751Z,28.47
2019-01-04T20:26:20.016Z,25.73
2019-01-04T20:29:11.062Z,25.50
2019-01-04T20:31:58.974Z,21.90
2019-01-04T20:34:42.131Z,35.00
2019-01-04T20:37:39.147Z,22.83
2019-01-04T20:40:34.390Z,29.10
2019-01-04T20:43:17.143Z,27.77
2019-01-04T20:46:09.358Z,27.83
2019-01-04T20:49:15.887Z,34.40
2019-01-04T20:52:06.342Z,28.47
2019-01-04T20:55:04.724Z,34.03
2019-01-04T20:57:54.583Z,30.50
2019-01-04T21:00:49.782Z,27.77
2019-01-04T21:03:42.058Z,30.33
2019-01-04T21:06:37.012Z,36.30
2019-01-04T21:09:32.595Z,36.60
2019-01-04T21:12:20.734Z,38.07
2019-01-04T21:15:08.592Z,38.37
2019-01-04T21:17:56.482Z,33.47
2019-01-04T21:20:51.171Z,40.27
2019-01-04T21:23:49.851Z,34.47
2019-01-04T21:26:51.189Z,37.33
2019-01-04T21:29:47.207Z,48.50
2019-01-04T21:32:35.078Z,48.47
2019-01-04T21:35:30.276Z,41.03
2019-01-04T21:38:18.746Z,42.33
2019-01-04T21:41:02.439Z,36.30
2019-01-04T21:43:58.622Z,46.77
2019-01-04T21:46:40.562Z,47.20
2019-01-04T21:49:29.837Z,46.33
2019-01-04T21:52:21.746Z,49.60
2019-01-04T21:55:11.120Z,46.60
2019-01-04T21:58:03.488Z,47.53
2019-01-04T22:01:05.902Z,47.27
2019-01-04T22:03:53.362Z,43.10
2019-01-04T22:06:51.942Z,41.43
2019-01-04T22:09:41.102Z,43.60
2019-01-04T22:12:29.338Z,45.70
2019-01-04T22:15:33.903Z,47.20
2019-01-04T22:18:21.734Z,40.83
2019-01-04T22:21:29.006Z,43.83
2019-01-04T22:24:18.466Z,44.10
2019-01-04T22:27:10.315Z,42.20
2019-01-04T22:29:57.838Z,40.70
2019-01-04T22:32:46.991Z,42.13
2019-01-04T22:35:38.982Z,41.93
2019-01-04T22:38:28.130Z,42.30
2019-01-04T22:41:32.803Z,46.40
2019-01-04T22:44:20.595Z,45.40
2019-01-04T22:47:00.946Z,48.07
2019-01-04T22:49:56.449Z,44.13
2019-01-04T22:52:44.481Z,42.07
2019-01-04T22:55:35.597Z,49.13
2019-01-04T22:58:37.001Z,44.40
2019-01-04T23:01:24.883Z,44.03
2019-01-04T23:04:23.478Z,46.20
2019-01-04T23:07:22.191Z,43.03
2019-01-04T23:10:23.750Z,39.10
2019-01-04T23:13:11.972Z,48.60
2019-01-04T23:16:09.091Z,41.63
2019-01-04T23:19:01.256Z,43.10
2019-01-04T23:22:22.438Z,39.27
2019-01-04T23:25:16.710Z,35.50
2019-01-04T23:28:17.925Z,36.47
2019-01-04T23:31:16.178Z,35.30
2019-01-04T23:34:11.170Z,37.53
2019-01-04T23:37:06.134Z,35.27
2019-01-04T23:39:54.318Z,33.10
2019-01-04T23:42:42.358Z,32.03
2019-01-04T23:45:37.483Z,36.40
2019-01-04T23:48:26.622Z,25.07
2019-01-04T23:51:21.710Z,29.90
2019-01-04T23:54:25.976Z,29.17
2019-01-04T23:57:15.158Z,28.00
